Flughafen Frankfurt-Hahn

Aus VATSIM Germany
Dies ist die bestätigte sowie die neueste Version dieser Seite.
Wechseln zu:Navigation, Suche
UnderCon icon.svg.pngDieser Artikel ist noch im Aufbau. Der Artikel kann daher unvollständig sein oder Fehler enthalten!


Frankfurt-Hahn Airport
ICAO / IATA EDFH / HHN
Koordinaten N49°56′55″  E007°15′50″
Höhe 503 m / 1649 ft
Wetter EDFH 171450Z VRB02KT CAVOK 17/09 Q1016
Pisten
Platzfrequenzen
Nur für Flugsimulationszwecke!



Informationen für Piloten und Lotsen
Pilotenbriefing

Standard Operating Procedures (SOP)

Letters of Agreement (LoAs)

Vorlage:Chartbox